sensor_id;sensor_type;location;lat;lon;timestamp;P1;durP1;ratioP1;P2;durP2;ratioP2
45420;SDS011;55462;47.042;8.292;2023-10-08T00:02:24;7.80;;;6.25;;
45420;SDS011;55462;47.042;8.292;2023-10-08T00:04:50;6.88;;;5.72;;
45420;SDS011;55462;47.042;8.292;2023-10-08T00:07:19;8.23;;;6.18;;
45420;SDS011;55462;47.042;8.292;2023-10-08T00:09:47;8.35;;;5.90;;
45420;SDS011;55462;47.042;8.292;2023-10-08T00:12:13;6.60;;;4.85;;
45420;SDS011;55462;47.042;8.292;2023-10-08T00:14:38;7.45;;;5.65;;
45420;SDS011;55462;47.042;8.292;2023-10-08T00:17:10;7.05;;;5.47;;
45420;SDS011;55462;47.042;8.292;2023-10-08T00:19:36;9.35;;;6.25;;
45420;SDS011;55462;47.042;8.292;2023-10-08T00:22:03;7.78;;;5.75;;
45420;SDS011;55462;47.042;8.292;2023-10-08T00:24:31;8.32;;;6.07;;
45420;SDS011;55462;47.042;8.292;2023-10-08T00:26:58;6.43;;;5.57;;
45420;SDS011;55462;47.042;8.292;2023-10-08T00:29:25;10.57;;;6.55;;
45420;SDS011;55462;47.042;8.292;2023-10-08T00:31:51;8.00;;;5.70;;
45420;SDS011;55462;47.042;8.292;2023-10-08T00:34:17;7.47;;;6.63;;
45420;SDS011;55462;47.042;8.292;2023-10-08T00:36:45;7.60;;;6.78;;
45420;SDS011;55462;47.042;8.292;2023-10-08T00:39:14;11.20;;;6.82;;
45420;SDS011;55462;47.042;8.292;2023-10-08T00:41:42;8.48;;;6.65;;
45420;SDS011;55462;47.042;8.292;2023-10-08T00:44:08;8.55;;;7.00;;
45420;SDS011;55462;47.042;8.292;2023-10-08T00:46:37;6.75;;;6.05;;
45420;SDS011;55462;47.042;8.292;2023-10-08T00:49:07;11.25;;;6.97;;
45420;SDS011;55462;47.042;8.292;2023-10-08T00:51:44;9.70;;;6.45;;
45420;SDS011;55462;47.042;8.292;2023-10-08T00:54:10;7.63;;;5.97;;
45420;SDS011;55462;47.042;8.292;2023-10-08T00:56:42;7.90;;;6.22;;
45420;SDS011;55462;47.042;8.292;2023-10-08T00:59:17;6.80;;;6.10;;
45420;SDS011;55462;47.042;8.292;2023-10-08T01:01:46;8.65;;;5.82;;
45420;SDS011;55462;47.042;8.292;2023-10-08T01:04:16;7.00;;;5.55;;
45420;SDS011;55462;47.042;8.292;2023-10-08T01:06:43;7.28;;;5.90;;
45420;SDS011;55462;47.042;8.292;2023-10-08T01:09:09;8.27;;;5.57;;
45420;SDS011;55462;47.042;8.292;2023-10-08T01:11:46;8.63;;;6.03;;
45420;SDS011;55462;47.042;8.292;2023-10-08T01:14:33;6.88;;;6.22;;
45420;SDS011;55462;47.042;8.292;2023-10-08T01:16:59;8.98;;;6.32;;
45420;SDS011;55462;47.042;8.292;2023-10-08T01:19:25;11.75;;;6.13;;
45420;SDS011;55462;47.042;8.292;2023-10-08T01:21:51;8.32;;;6.03;;
45420;SDS011;55462;47.042;8.292;2023-10-08T01:24:17;7.13;;;6.13;;
45420;SDS011;55462;47.042;8.292;2023-10-08T01:26:44;8.88;;;6.32;;
45420;SDS011;55462;47.042;8.292;2023-10-08T01:29:10;10.85;;;5.93;;
45420;SDS011;55462;47.042;8.292;2023-10-08T01:31:44;9.50;;;5.47;;
45420;SDS011;55462;47.042;8.292;2023-10-08T01:34:09;7.20;;;6.13;;
45420;SDS011;55462;47.042;8.292;2023-10-08T01:36:40;12.05;;;6.32;;
45420;SDS011;55462;47.042;8.292;2023-10-08T01:39:08;8.40;;;5.65;;
45420;SDS011;55462;47.042;8.292;2023-10-08T01:41:36;8.13;;;5.90;;
45420;SDS011;55462;47.042;8.292;2023-10-08T01:44:05;8.50;;;6.18;;
45420;SDS011;55462;47.042;8.292;2023-10-08T01:46:33;10.48;;;5.30;;
45420;SDS011;55462;47.042;8.292;2023-10-08T01:48:59;11.85;;;6.65;;
45420;SDS011;55462;47.042;8.292;2023-10-08T01:51:38;7.88;;;5.68;;
45420;SDS011;55462;47.042;8.292;2023-10-08T01:54:04;9.93;;;5.38;;
45420;SDS011;55462;47.042;8.292;2023-10-08T01:56:38;7.07;;;5.72;;
45420;SDS011;55462;47.042;8.292;2023-10-08T01:59:06;8.63;;;6.03;;
45420;SDS011;55462;47.042;8.292;2023-10-08T02:01:33;7.28;;;5.38;;
45420;SDS011;55462;47.042;8.292;2023-10-08T02:04:02;10.63;;;5.45;;
45420;SDS011;55462;47.042;8.292;2023-10-08T02:06:27;9.55;;;5.88;;
45420;SDS011;55462;47.042;8.292;2023-10-08T02:08:52;9.68;;;6.35;;
45420;SDS011;55462;47.042;8.292;2023-10-08T02:11:18;8.23;;;5.40;;
45420;SDS011;55462;47.042;8.292;2023-10-08T02:13:45;8.45;;;5.40;;
45420;SDS011;55462;47.042;8.292;2023-10-08T02:16:12;8.05;;;5.82;;
45420;SDS011;55462;47.042;8.292;2023-10-08T02:18:47;8.55;;;5.38;;
45420;SDS011;55462;47.042;8.292;2023-10-08T02:21:13;8.68;;;5.75;;
45420;SDS011;55462;47.042;8.292;2023-10-08T02:23:38;8.30;;;5.43;;
45420;SDS011;55462;47.042;8.292;2023-10-08T02:26:04;10.05;;;5.47;;
45420;SDS011;55462;47.042;8.292;2023-10-08T02:28:30;11.18;;;6.32;;
45420;SDS011;55462;47.042;8.292;2023-10-08T02:30:58;12.25;;;6.22;;
45420;SDS011;55462;47.042;8.292;2023-10-08T02:33:24;8.75;;;5.45;;
45420;SDS011;55462;47.042;8.292;2023-10-08T02:35:51;11.10;;;6.35;;
45420;SDS011;55462;47.042;8.292;2023-10-08T02:38:17;9.80;;;5.70;;
45420;SDS011;55462;47.042;8.292;2023-10-08T02:40:43;6.80;;;5.60;;
45420;SDS011;55462;47.042;8.292;2023-10-08T02:43:11;8.48;;;5.80;;
45420;SDS011;55462;47.042;8.292;2023-10-08T02:45:39;8.45;;;6.10;;
45420;SDS011;55462;47.042;8.292;2023-10-08T02:48:06;6.00;;;4.78;;
45420;SDS011;55462;47.042;8.292;2023-10-08T02:50:37;11.30;;;5.40;;
45420;SDS011;55462;47.042;8.292;2023-10-08T02:53:04;10.68;;;6.10;;
45420;SDS011;55462;47.042;8.292;2023-10-08T02:55:36;9.52;;;5.45;;
45420;SDS011;55462;47.042;8.292;2023-10-08T02:58:09;6.22;;;5.40;;
45420;SDS011;55462;47.042;8.292;2023-10-08T03:00:39;7.85;;;5.60;;
45420;SDS011;55462;47.042;8.292;2023-10-08T03:03:08;9.50;;;5.63;;
45420;SDS011;55462;47.042;8.292;2023-10-08T03:05:46;8.90;;;5.93;;
45420;SDS011;55462;47.042;8.292;2023-10-08T03:08:13;8.15;;;5.60;;
45420;SDS011;55462;47.042;8.292;2023-10-08T03:10:39;8.43;;;6.07;;
45420;SDS011;55462;47.042;8.292;2023-10-08T03:13:06;6.72;;;5.43;;
45420;SDS011;55462;47.042;8.292;2023-10-08T03:15:34;10.27;;;5.72;;
45420;SDS011;55462;47.042;8.292;2023-10-08T03:18:11;7.72;;;5.93;;
45420;SDS011;55462;47.042;8.292;2023-10-08T03:20:39;7.90;;;5.15;;
45420;SDS011;55462;47.042;8.292;2023-10-08T03:23:11;10.95;;;5.45;;
45420;SDS011;55462;47.042;8.292;2023-10-08T03:25:41;6.20;;;5.10;;
45420;SDS011;55462;47.042;8.292;2023-10-08T03:28:13;8.73;;;4.72;;
45420;SDS011;55462;47.042;8.292;2023-10-08T03:30:43;9.25;;;5.35;;
45420;SDS011;55462;47.042;8.292;2023-10-08T03:33:18;9.00;;;5.47;;
45420;SDS011;55462;47.042;8.292;2023-10-08T03:35:52;8.25;;;4.95;;
45420;SDS011;55462;47.042;8.292;2023-10-08T03:38:19;7.38;;;5.03;;
45420;SDS011;55462;47.042;8.292;2023-10-08T03:40:53;7.90;;;5.40;;
45420;SDS011;55462;47.042;8.292;2023-10-08T03:43:22;7.40;;;5.22;;
45420;SDS011;55462;47.042;8.292;2023-10-08T03:45:59;8.15;;;5.30;;
45420;SDS011;55462;47.042;8.292;2023-10-08T03:48:25;7.50;;;5.05;;
45420;SDS011;55462;47.042;8.292;2023-10-08T03:50:50;9.25;;;5.20;;
45420;SDS011;55462;47.042;8.292;2023-10-08T03:53:31;10.57;;;5.28;;
45420;SDS011;55462;47.042;8.292;2023-10-08T03:55:59;10.68;;;5.22;;
45420;SDS011;55462;47.042;8.292;2023-10-08T03:58:30;8.65;;;5.25;;
45420;SDS011;55462;47.042;8.292;2023-10-08T04:00:58;10.90;;;4.82;;
45420;SDS011;55462;47.042;8.292;2023-10-08T04:03:34;9.10;;;4.90;;
45420;SDS011;55462;47.042;8.292;2023-10-08T04:06:23;10.20;;;5.50;;
45420;SDS011;55462;47.042;8.292;2023-10-08T04:08:57;10.70;;;5.25;;
45420;SDS011;55462;47.042;8.292;2023-10-08T04:11:35;9.50;;;4.78;;
45420;SDS011;55462;47.042;8.292;2023-10-08T04:14:16;10.43;;;5.28;;
45420;SDS011;55462;47.042;8.292;2023-10-08T04:16:41;6.00;;;4.70;;
45420;SDS011;55462;47.042;8.292;2023-10-08T04:19:07;7.70;;;5.00;;
45420;SDS011;55462;47.042;8.292;2023-10-08T04:21:32;9.98;;;5.00;;
45420;SDS011;55462;47.042;8.292;2023-10-08T04:24:01;7.82;;;4.30;;
45420;SDS011;55462;47.042;8.292;2023-10-08T04:26:33;6.95;;;4.70;;
45420;SDS011;55462;47.042;8.292;2023-10-08T04:29:00;7.38;;;4.65;;
45420;SDS011;55462;47.042;8.292;2023-10-08T04:31:31;8.95;;;5.07;;
45420;SDS011;55462;47.042;8.292;2023-10-08T04:34:06;9.27;;;4.55;;
45420;SDS011;55462;47.042;8.292;2023-10-08T04:36:41;8.60;;;4.50;;
45420;SDS011;55462;47.042;8.292;2023-10-08T04:39:10;12.88;;;4.72;;
45420;SDS011;55462;47.042;8.292;2023-10-08T04:41:41;6.57;;;4.45;;
45420;SDS011;55462;47.042;8.292;2023-10-08T04:44:10;11.52;;;5.18;;
45420;SDS011;55462;47.042;8.292;2023-10-08T04:46:42;7.90;;;4.60;;
45420;SDS011;55462;47.042;8.292;2023-10-08T04:49:11;8.77;;;4.53;;
45420;SDS011;55462;47.042;8.292;2023-10-08T04:51:52;7.97;;;5.13;;
45420;SDS011;55462;47.042;8.292;2023-10-08T04:54:21;9.55;;;4.63;;
45420;SDS011;55462;47.042;8.292;2023-10-08T04:56:47;7.88;;;4.38;;
45420;SDS011;55462;47.042;8.292;2023-10-08T04:59:14;7.88;;;4.82;;
45420;SDS011;55462;47.042;8.292;2023-10-08T05:01:39;8.82;;;4.65;;
45420;SDS011;55462;47.042;8.292;2023-10-08T05:04:27;9.70;;;4.70;;
45420;SDS011;55462;47.042;8.292;2023-10-08T05:06:57;7.68;;;4.55;;
45420;SDS011;55462;47.042;8.292;2023-10-08T05:09:42;10.48;;;4.45;;
45420;SDS011;55462;47.042;8.292;2023-10-08T05:12:17;9.75;;;4.68;;
45420;SDS011;55462;47.042;8.292;2023-10-08T05:14:57;9.93;;;4.55;;
45420;SDS011;55462;47.042;8.292;2023-10-08T05:17:38;10.85;;;4.68;;
45420;SDS011;55462;47.042;8.292;2023-10-08T05:20:21;7.65;;;4.35;;
45420;SDS011;55462;47.042;8.292;2023-10-08T05:23:06;9.75;;;5.05;;
45420;SDS011;55462;47.042;8.292;2023-10-08T05:25:51;8.25;;;4.50;;
45420;SDS011;55462;47.042;8.292;2023-10-08T05:28:34;7.65;;;4.45;;
45420;SDS011;55462;47.042;8.292;2023-10-08T05:31:12;7.55;;;4.65;;
45420;SDS011;55462;47.042;8.292;2023-10-08T05:33:39;7.07;;;4.60;;
45420;SDS011;55462;47.042;8.292;2023-10-08T05:36:26;12.10;;;4.78;;
45420;SDS011;55462;47.042;8.292;2023-10-08T05:39:10;9.32;;;5.30;;
45420;SDS011;55462;47.042;8.292;2023-10-08T05:41:54;10.52;;;4.72;;
45420;SDS011;55462;47.042;8.292;2023-10-08T05:44:39;8.70;;;4.72;;
45420;SDS011;55462;47.042;8.292;2023-10-08T05:47:08;14.43;;;4.80;;
45420;SDS011;55462;47.042;8.292;2023-10-08T05:49:59;10.95;;;5.43;;
45420;SDS011;55462;47.042;8.292;2023-10-08T05:52:44;7.20;;;4.57;;
45420;SDS011;55462;47.042;8.292;2023-10-08T05:55:22;10.30;;;4.68;;
45420;SDS011;55462;47.042;8.292;2023-10-08T05:57:51;7.50;;;4.68;;
45420;SDS011;55462;47.042;8.292;2023-10-08T06:00:42;10.20;;;4.15;;
45420;SDS011;55462;47.042;8.292;2023-10-08T06:03:15;8.65;;;4.72;;
45420;SDS011;55462;47.042;8.292;2023-10-08T06:06:05;8.80;;;4.78;;
45420;SDS011;55462;47.042;8.292;2023-10-08T06:08:38;9.30;;;5.07;;
45420;SDS011;55462;47.042;8.292;2023-10-08T06:11:14;7.78;;;4.72;;
45420;SDS011;55462;47.042;8.292;2023-10-08T06:13:52;10.45;;;4.38;;
45420;SDS011;55462;47.042;8.292;2023-10-08T06:16:25;6.38;;;4.32;;
45420;SDS011;55462;47.042;8.292;2023-10-08T06:19:06;6.15;;;4.30;;
45420;SDS011;55462;47.042;8.292;2023-10-08T06:21:31;6.97;;;4.50;;
45420;SDS011;55462;47.042;8.292;2023-10-08T06:23:56;10.75;;;4.60;;
45420;SDS011;55462;47.042;8.292;2023-10-08T06:26:22;12.20;;;4.78;;
45420;SDS011;55462;47.042;8.292;2023-10-08T06:28:49;12.13;;;4.82;;
45420;SDS011;55462;47.042;8.292;2023-10-08T06:31:14;8.82;;;5.05;;
45420;SDS011;55462;47.042;8.292;2023-10-08T06:33:49;8.32;;;4.53;;
45420;SDS011;55462;47.042;8.292;2023-10-08T06:36:15;11.55;;;5.10;;
45420;SDS011;55462;47.042;8.292;2023-10-08T06:38:44;9.85;;;5.05;;
45420;SDS011;55462;47.042;8.292;2023-10-08T06:41:13;10.18;;;5.05;;
45420;SDS011;55462;47.042;8.292;2023-10-08T06:43:39;6.47;;;4.60;;
45420;SDS011;55462;47.042;8.292;2023-10-08T06:46:10;8.13;;;4.57;;
45420;SDS011;55462;47.042;8.292;2023-10-08T06:48:37;10.43;;;4.88;;
45420;SDS011;55462;47.042;8.292;2023-10-08T06:51:07;7.60;;;4.18;;
45420;SDS011;55462;47.042;8.292;2023-10-08T06:53:37;8.60;;;4.50;;
45420;SDS011;55462;47.042;8.292;2023-10-08T06:56:06;7.55;;;5.10;;
45420;SDS011;55462;47.042;8.292;2023-10-08T06:58:34;9.02;;;4.75;;
45420;SDS011;55462;47.042;8.292;2023-10-08T07:01:00;10.63;;;4.82;;
45420;SDS011;55462;47.042;8.292;2023-10-08T07:03:33;8.85;;;4.55;;
45420;SDS011;55462;47.042;8.292;2023-10-08T07:05:59;7.05;;;4.60;;
45420;SDS011;55462;47.042;8.292;2023-10-08T07:08:28;9.85;;;5.35;;
45420;SDS011;55462;47.042;8.292;2023-10-08T07:10:57;10.20;;;5.05;;
45420;SDS011;55462;47.042;8.292;2023-10-08T07:13:24;10.93;;;5.32;;
45420;SDS011;55462;47.042;8.292;2023-10-08T07:15:50;8.48;;;4.82;;
45420;SDS011;55462;47.042;8.292;2023-10-08T07:18:16;7.38;;;5.32;;
45420;SDS011;55462;47.042;8.292;2023-10-08T07:20:54;9.63;;;4.80;;
45420;SDS011;55462;47.042;8.292;2023-10-08T07:23:21;8.48;;;4.75;;
45420;SDS011;55462;47.042;8.292;2023-10-08T07:25:58;11.45;;;4.97;;
45420;SDS011;55462;47.042;8.292;2023-10-08T07:28:40;10.48;;;5.55;;
45420;SDS011;55462;47.042;8.292;2023-10-08T07:31:16;11.90;;;5.68;;
45420;SDS011;55462;47.042;8.292;2023-10-08T07:33:46;11.82;;;5.70;;
45420;SDS011;55462;47.042;8.292;2023-10-08T07:36:12;12.88;;;5.68;;
45420;SDS011;55462;47.042;8.292;2023-10-08T07:38:42;7.90;;;4.93;;
45420;SDS011;55462;47.042;8.292;2023-10-08T07:41:09;9.27;;;5.43;;
45420;SDS011;55462;47.042;8.292;2023-10-08T07:43:37;11.10;;;5.40;;
45420;SDS011;55462;47.042;8.292;2023-10-08T07:46:02;11.23;;;5.22;;
45420;SDS011;55462;47.042;8.292;2023-10-08T07:48:28;11.43;;;5.82;;
45420;SDS011;55462;47.042;8.292;2023-10-08T07:50:55;11.18;;;5.35;;
45420;SDS011;55462;47.042;8.292;2023-10-08T07:53:22;14.05;;;5.88;;
45420;SDS011;55462;47.042;8.292;2023-10-08T07:55:49;11.77;;;5.70;;
45420;SDS011;55462;47.042;8.292;2023-10-08T07:58:16;14.13;;;5.68;;
45420;SDS011;55462;47.042;8.292;2023-10-08T08:00:42;11.93;;;6.03;;
45420;SDS011;55462;47.042;8.292;2023-10-08T08:03:16;8.90;;;5.07;;
45420;SDS011;55462;47.042;8.292;2023-10-08T08:05:43;11.43;;;5.82;;
45420;SDS011;55462;47.042;8.292;2023-10-08T08:08:09;10.50;;;5.30;;
45420;SDS011;55462;47.042;8.292;2023-10-08T08:10:34;12.70;;;5.60;;
45420;SDS011;55462;47.042;8.292;2023-10-08T08:13:04;11.27;;;5.72;;
45420;SDS011;55462;47.042;8.292;2023-10-08T08:15:31;9.75;;;5.88;;
45420;SDS011;55462;47.042;8.292;2023-10-08T08:17:58;9.45;;;5.40;;
45420;SDS011;55462;47.042;8.292;2023-10-08T08:20:23;9.75;;;5.43;;
45420;SDS011;55462;47.042;8.292;2023-10-08T08:22:59;10.60;;;5.10;;
45420;SDS011;55462;47.042;8.292;2023-10-08T08:25:31;12.27;;;5.30;;
45420;SDS011;55462;47.042;8.292;2023-10-08T08:28:10;10.43;;;4.90;;
45420;SDS011;55462;47.042;8.292;2023-10-08T08:30:42;11.15;;;5.18;;
45420;SDS011;55462;47.042;8.292;2023-10-08T08:33:11;10.68;;;4.43;;
45420;SDS011;55462;47.042;8.292;2023-10-08T08:35:37;12.43;;;5.13;;
45420;SDS011;55462;47.042;8.292;2023-10-08T08:38:02;15.65;;;5.75;;
45420;SDS011;55462;47.042;8.292;2023-10-08T08:40:30;13.05;;;5.55;;
45420;SDS011;55462;47.042;8.292;2023-10-08T08:42:57;10.52;;;5.13;;
45420;SDS011;55462;47.042;8.292;2023-10-08T08:45:27;12.95;;;5.30;;
45420;SDS011;55462;47.042;8.292;2023-10-08T08:47:56;15.57;;;4.85;;
45420;SDS011;55462;47.042;8.292;2023-10-08T08:50:22;10.80;;;5.15;;
45420;SDS011;55462;47.042;8.292;2023-10-08T08:52:47;10.02;;;5.38;;
45420;SDS011;55462;47.042;8.292;2023-10-08T08:55:13;16.48;;;6.00;;
45420;SDS011;55462;47.042;8.292;2023-10-08T08:57:41;9.00;;;5.72;;
45420;SDS011;55462;47.042;8.292;2023-10-08T09:00:11;12.05;;;5.22;;
45420;SDS011;55462;47.042;8.292;2023-10-08T09:02:38;14.05;;;5.93;;
45420;SDS011;55462;47.042;8.292;2023-10-08T09:05:04;12.10;;;6.03;;
45420;SDS011;55462;47.042;8.292;2023-10-08T09:07:53;14.65;;;5.18;;
45420;SDS011;55462;47.042;8.292;2023-10-08T09:10:19;15.40;;;6.32;;
45420;SDS011;55462;47.042;8.292;2023-10-08T09:12:51;11.10;;;6.30;;
45420;SDS011;55462;47.042;8.292;2023-10-08T09:15:17;11.07;;;5.78;;
45420;SDS011;55462;47.042;8.292;2023-10-08T09:17:43;11.98;;;5.93;;
45420;SDS011;55462;47.042;8.292;2023-10-08T09:20:08;12.68;;;5.80;;
45420;SDS011;55462;47.042;8.292;2023-10-08T09:22:34;10.60;;;5.57;;
45420;SDS011;55462;47.042;8.292;2023-10-08T09:25:00;9.35;;;6.15;;
45420;SDS011;55462;47.042;8.292;2023-10-08T09:27:30;12.52;;;6.15;;
45420;SDS011;55462;47.042;8.292;2023-10-08T09:29:55;12.25;;;6.82;;
45420;SDS011;55462;47.042;8.292;2023-10-08T09:32:21;11.88;;;5.63;;
45420;SDS011;55462;47.042;8.292;2023-10-08T09:34:49;10.63;;;5.35;;
45420;SDS011;55462;47.042;8.292;2023-10-08T09:37:18;12.00;;;7.20;;
45420;SDS011;55462;47.042;8.292;2023-10-08T09:39:47;10.45;;;5.80;;
45420;SDS011;55462;47.042;8.292;2023-10-08T09:42:14;10.63;;;5.50;;
45420;SDS011;55462;47.042;8.292;2023-10-08T09:44:39;12.93;;;4.97;;
45420;SDS011;55462;47.042;8.292;2023-10-08T09:47:06;13.52;;;6.68;;
45420;SDS011;55462;47.042;8.292;2023-10-08T09:49:41;11.40;;;6.00;;
45420;SDS011;55462;47.042;8.292;2023-10-08T09:52:10;16.50;;;6.30;;
45420;SDS011;55462;47.042;8.292;2023-10-08T09:54:42;13.02;;;6.85;;
45420;SDS011;55462;47.042;8.292;2023-10-08T09:57:09;14.80;;;5.93;;
45420;SDS011;55462;47.042;8.292;2023-10-08T09:59:35;12.60;;;5.50;;
45420;SDS011;55462;47.042;8.292;2023-10-08T10:02:03;13.68;;;5.40;;
45420;SDS011;55462;47.042;8.292;2023-10-08T10:04:30;10.68;;;4.95;;
45420;SDS011;55462;47.042;8.292;2023-10-08T10:06:57;10.85;;;5.25;;
45420;SDS011;55462;47.042;8.292;2023-10-08T10:09:25;13.75;;;5.40;;
45420;SDS011;55462;47.042;8.292;2023-10-08T10:11:51;13.85;;;5.35;;
45420;SDS011;55462;47.042;8.292;2023-10-08T10:14:21;14.98;;;5.50;;
45420;SDS011;55462;47.042;8.292;2023-10-08T10:19:39;11.65;;;5.32;;
45420;SDS011;55462;47.042;8.292;2023-10-08T10:22:10;15.20;;;6.53;;
45420;SDS011;55462;47.042;8.292;2023-10-08T10:24:38;13.73;;;5.75;;
45420;SDS011;55462;47.042;8.292;2023-10-08T10:27:24;11.30;;;5.68;;
45420;SDS011;55462;47.042;8.292;2023-10-08T10:29:49;12.00;;;4.97;;
45420;SDS011;55462;47.042;8.292;2023-10-08T10:32:15;11.00;;;5.75;;
45420;SDS011;55462;47.042;8.292;2023-10-08T10:34:42;9.50;;;5.63;;
45420;SDS011;55462;47.042;8.292;2023-10-08T10:37:08;14.43;;;5.75;;
45420;SDS011;55462;47.042;8.292;2023-10-08T10:39:34;9.77;;;6.25;;
45420;SDS011;55462;47.042;8.292;2023-10-08T10:42:05;16.98;;;5.65;;
45420;SDS011;55462;47.042;8.292;2023-10-08T10:44:31;17.27;;;6.35;;
45420;SDS011;55462;47.042;8.292;2023-10-08T10:46:57;17.42;;;6.43;;
45420;SDS011;55462;47.042;8.292;2023-10-08T10:49:42;14.50;;;5.97;;
45420;SDS011;55462;47.042;8.292;2023-10-08T10:52:19;13.77;;;5.95;;
45420;SDS011;55462;47.042;8.292;2023-10-08T10:55:06;11.95;;;6.10;;
45420;SDS011;55462;47.042;8.292;2023-10-08T10:57:48;13.75;;;6.80;;
45420;SDS011;55462;47.042;8.292;2023-10-08T11:00:19;16.80;;;6.70;;
45420;SDS011;55462;47.042;8.292;2023-10-08T11:03:14;12.27;;;6.10;;
45420;SDS011;55462;47.042;8.292;2023-10-08T11:05:43;14.88;;;6.50;;
45420;SDS011;55462;47.042;8.292;2023-10-08T11:08:13;12.65;;;6.38;;
45420;SDS011;55462;47.042;8.292;2023-10-08T11:10:41;17.33;;;6.28;;
45420;SDS011;55462;47.042;8.292;2023-10-08T11:13:13;14.23;;;5.90;;
45420;SDS011;55462;47.042;8.292;2023-10-08T11:15:42;18.70;;;6.75;;
45420;SDS011;55462;47.042;8.292;2023-10-08T11:18:14;12.25;;;6.15;;
45420;SDS011;55462;47.042;8.292;2023-10-08T11:20:40;16.52;;;5.95;;
45420;SDS011;55462;47.042;8.292;2023-10-08T11:23:06;18.42;;;6.30;;
45420;SDS011;55462;47.042;8.292;2023-10-08T11:25:56;12.43;;;5.88;;
45420;SDS011;55462;47.042;8.292;2023-10-08T11:28:27;10.45;;;5.50;;
45420;SDS011;55462;47.042;8.292;2023-10-08T11:30:53;16.73;;;6.13;;
45420;SDS011;55462;47.042;8.292;2023-10-08T11:33:19;13.98;;;5.63;;
45420;SDS011;55462;47.042;8.292;2023-10-08T11:36:03;12.05;;;4.95;;
45420;SDS011;55462;47.042;8.292;2023-10-08T11:38:41;17.25;;;6.13;;
45420;SDS011;55462;47.042;8.292;2023-10-08T11:41:10;16.30;;;6.10;;
45420;SDS011;55462;47.042;8.292;2023-10-08T11:43:49;14.52;;;5.38;;
45420;SDS011;55462;47.042;8.292;2023-10-08T11:46:18;11.70;;;5.70;;
45420;SDS011;55462;47.042;8.292;2023-10-08T11:49:06;16.10;;;5.53;;
45420;SDS011;55462;47.042;8.292;2023-10-08T11:51:32;14.57;;;6.32;;
45420;SDS011;55462;47.042;8.292;2023-10-08T11:53:58;9.30;;;5.53;;
45420;SDS011;55462;47.042;8.292;2023-10-08T11:56:25;15.20;;;6.55;;
45420;SDS011;55462;47.042;8.292;2023-10-08T11:58:51;13.35;;;6.43;;
45420;SDS011;55462;47.042;8.292;2023-10-08T12:01:16;16.85;;;6.63;;
45420;SDS011;55462;47.042;8.292;2023-10-08T12:03:43;15.60;;;5.68;;
45420;SDS011;55462;47.042;8.292;2023-10-08T12:06:09;13.93;;;5.10;;
45420;SDS011;55462;47.042;8.292;2023-10-08T12:08:40;14.80;;;5.60;;
45420;SDS011;55462;47.042;8.292;2023-10-08T12:11:05;9.63;;;4.97;;
45420;SDS011;55462;47.042;8.292;2023-10-08T12:13:36;10.55;;;5.38;;
45420;SDS011;55462;47.042;8.292;2023-10-08T12:16:09;9.07;;;5.57;;
45420;SDS011;55462;47.042;8.292;2023-10-08T12:18:41;8.40;;;5.13;;
45420;SDS011;55462;47.042;8.292;2023-10-08T12:21:08;14.88;;;5.57;;
45420;SDS011;55462;47.042;8.292;2023-10-08T12:23:36;16.10;;;5.13;;
45420;SDS011;55462;47.042;8.292;2023-10-08T12:26:02;15.95;;;5.13;;
45420;SDS011;55462;47.042;8.292;2023-10-08T12:28:28;12.63;;;5.07;;
45420;SDS011;55462;47.042;8.292;2023-10-08T12:30:53;10.90;;;5.30;;
45420;SDS011;55462;47.042;8.292;2023-10-08T12:33:19;8.13;;;4.97;;
45420;SDS011;55462;47.042;8.292;2023-10-08T12:35:45;14.15;;;4.90;;
45420;SDS011;55462;47.042;8.292;2023-10-08T12:38:12;10.80;;;5.20;;
45420;SDS011;55462;47.042;8.292;2023-10-08T12:40:38;13.27;;;5.68;;
45420;SDS011;55462;47.042;8.292;2023-10-08T12:43:15;9.77;;;5.10;;
45420;SDS011;55462;47.042;8.292;2023-10-08T12:45:47;11.75;;;5.88;;
45420;SDS011;55462;47.042;8.292;2023-10-08T12:50:49;11.77;;;5.00;;
45420;SDS011;55462;47.042;8.292;2023-10-08T12:53:25;8.82;;;4.72;;
45420;SDS011;55462;47.042;8.292;2023-10-08T12:56:05;13.45;;;5.40;;
45420;SDS011;55462;47.042;8.292;2023-10-08T12:58:35;11.23;;;5.47;;
45420;SDS011;55462;47.042;8.292;2023-10-08T13:01:06;14.68;;;5.80;;
45420;SDS011;55462;47.042;8.292;2023-10-08T13:03:35;18.33;;;4.93;;
45420;SDS011;55462;47.042;8.292;2023-10-08T13:06:06;13.63;;;5.68;;
45420;SDS011;55462;47.042;8.292;2023-10-08T13:08:36;17.55;;;6.22;;
45420;SDS011;55462;47.042;8.292;2023-10-08T13:11:01;18.02;;;5.88;;
45420;SDS011;55462;47.042;8.292;2023-10-08T13:13:27;15.93;;;5.43;;
45420;SDS011;55462;47.042;8.292;2023-10-08T13:15:53;14.10;;;5.05;;
45420;SDS011;55462;47.042;8.292;2023-10-08T13:18:24;14.13;;;5.53;;
45420;SDS011;55462;47.042;8.292;2023-10-08T13:20:52;11.05;;;5.30;;
45420;SDS011;55462;47.042;8.292;2023-10-08T13:23:18;11.63;;;5.13;;
45420;SDS011;55462;47.042;8.292;2023-10-08T13:25:46;12.15;;;4.90;;
45420;SDS011;55462;47.042;8.292;2023-10-08T13:28:16;15.60;;;5.57;;
45420;SDS011;55462;47.042;8.292;2023-10-08T13:30:42;12.20;;;5.03;;
45420;SDS011;55462;47.042;8.292;2023-10-08T13:33:07;12.25;;;4.70;;
45420;SDS011;55462;47.042;8.292;2023-10-08T13:35:34;12.23;;;5.45;;
45420;SDS011;55462;47.042;8.292;2023-10-08T13:37:59;10.85;;;5.32;;
45420;SDS011;55462;47.042;8.292;2023-10-08T13:40:31;16.75;;;5.40;;
45420;SDS011;55462;47.042;8.292;2023-10-08T13:42:58;16.90;;;5.70;;
45420;SDS011;55462;47.042;8.292;2023-10-08T13:45:23;14.15;;;5.85;;
45420;SDS011;55462;47.042;8.292;2023-10-08T13:47:52;16.33;;;5.80;;
45420;SDS011;55462;47.042;8.292;2023-10-08T13:50:17;19.75;;;6.28;;
45420;SDS011;55462;47.042;8.292;2023-10-08T13:52:43;10.60;;;5.40;;
45420;SDS011;55462;47.042;8.292;2023-10-08T13:55:09;12.90;;;5.40;;
45420;SDS011;55462;47.042;8.292;2023-10-08T13:57:38;10.52;;;5.10;;
45420;SDS011;55462;47.042;8.292;2023-10-08T14:00:07;14.75;;;5.20;;
45420;SDS011;55462;47.042;8.292;2023-10-08T14:02:40;13.15;;;5.13;;
45420;SDS011;55462;47.042;8.292;2023-10-08T14:05:09;11.60;;;4.78;;
45420;SDS011;55462;47.042;8.292;2023-10-08T14:07:35;20.63;;;5.10;;
45420;SDS011;55462;47.042;8.292;2023-10-08T14:10:01;12.52;;;5.10;;
45420;SDS011;55462;47.042;8.292;2023-10-08T14:12:33;9.27;;;4.60;;
45420;SDS011;55462;47.042;8.292;2023-10-08T14:15:00;15.38;;;5.68;;
45420;SDS011;55462;47.042;8.292;2023-10-08T14:17:31;15.40;;;5.40;;
45420;SDS011;55462;47.042;8.292;2023-10-08T14:20:13;11.65;;;4.63;;
45420;SDS011;55462;47.042;8.292;2023-10-08T14:22:39;10.88;;;5.38;;
45420;SDS011;55462;47.042;8.292;2023-10-08T14:25:07;14.38;;;5.07;;
45420;SDS011;55462;47.042;8.292;2023-10-08T14:27:37;13.98;;;5.07;;
45420;SDS011;55462;47.042;8.292;2023-10-08T14:30:08;8.68;;;4.57;;
45420;SDS011;55462;47.042;8.292;2023-10-08T14:32:40;12.00;;;5.20;;
45420;SDS011;55462;47.042;8.292;2023-10-08T14:35:10;13.43;;;5.47;;
45420;SDS011;55462;47.042;8.292;2023-10-08T14:37:55;13.93;;;5.35;;
45420;SDS011;55462;47.042;8.292;2023-10-08T14:40:39;13.82;;;5.50;;
45420;SDS011;55462;47.042;8.292;2023-10-08T14:43:23;11.48;;;5.28;;
45420;SDS011;55462;47.042;8.292;2023-10-08T14:45:49;12.57;;;5.53;;
45420;SDS011;55462;47.042;8.292;2023-10-08T14:48:14;14.35;;;5.63;;
45420;SDS011;55462;47.042;8.292;2023-10-08T14:50:39;14.38;;;4.93;;
45420;SDS011;55462;47.042;8.292;2023-10-08T14:53:06;11.48;;;5.00;;
45420;SDS011;55462;47.042;8.292;2023-10-08T14:55:32;13.95;;;5.70;;
45420;SDS011;55462;47.042;8.292;2023-10-08T14:58:01;12.15;;;5.63;;
45420;SDS011;55462;47.042;8.292;2023-10-08T15:00:32;19.38;;;6.45;;
45420;SDS011;55462;47.042;8.292;2023-10-08T15:03:00;22.13;;;5.65;;
45420;SDS011;55462;47.042;8.292;2023-10-08T15:05:28;16.55;;;5.82;;